Time;durP1;ratioP1;P1;durP2;ratioP2;P2;SDS_P1;SDS_P2;PMS_P1;PMS_P2;Temp;Humidity;BMP_temperature;BMP_pressure;BME280_temperature;BME280_humidity;BME280_pressure;Samples;Min_cycle;Max_cycle;Signal;HPM_P1;HPM_P2
2021/04/26 00:01:41;;;;;;;15.80;10.45;;;281.70;1561.60;;;;;;5092226;28;20023;-61
2021/04/26 00:04:07;;;;;;;18.40;9.07;;;281.80;1510.40;;;;;;5092273;28;20107;-59
2021/04/26 00:06:33;;;;;;;12.75;7.47;;;281.80;1510.40;;;;;;5092260;28;20086;-62
2021/04/26 00:08:59;;;;;;;21.67;8.90;;;281.80;1536.00;;;;;;5092109;28;20486;-60
2021/04/26 00:11:24;;;;;;;13.90;7.88;;;281.70;1561.60;;;;;;5092396;28;20044;-59
2021/04/26 00:13:50;;;;;;;12.20;8.07;;;256.80;1587.20;;;;;;5092009;28;20031;-60
2021/04/26 00:16:16;;;;;;;12.13;7.82;;;256.70;1587.20;;;;;;5092168;28;20025;-61
2021/04/26 00:18:42;;;;;;;11.10;7.35;;;256.60;1612.80;;;;;;5092279;28;20039;-60
2021/04/26 00:21:08;;;;;;;17.67;8.27;;;256.50;1612.80;;;;;;5092418;28;20028;-60
2021/04/26 00:23:34;;;;;;;14.43;8.88;;;256.60;1561.60;;;;;;5091932;28;20028;-60
2021/04/26 00:25:59;;;;;;;17.70;11.75;;;256.60;1561.60;;;;;;5091935;28;20016;-60
2021/04/26 00:28:25;;;;;;;14.05;9.65;;;256.80;1536.00;;;;;;5091796;28;20059;-60
2021/04/26 00:30:51;;;;;;;14.02;9.93;;;256.90;1561.60;;;;;;5092278;28;20103;-59
2021/04/26 00:33:17;;;;;;;15.45;9.30;;;256.70;1587.20;;;;;;5092530;28;20054;-59
2021/04/26 00:35:42;;;;;;;16.10;10.23;;;256.60;1587.20;;;;;;5092355;28;20022;-58
2021/04/26 00:38:08;;;;;;;16.90;9.57;;;256.60;1561.60;;;;;;5093252;28;20409;-60
2021/04/26 00:40:34;;;;;;;13.65;7.70;;;256.50;1612.80;;;;;;5092849;28;20115;-61
2021/04/26 00:42:59;;;;;;;13.88;8.90;;;256.10;1664.00;;;;;;5092275;28;20028;-60
2021/04/26 00:45:26;;;;;;;12.40;8.35;;;256.10;1689.60;;;;;;5092160;28;20048;-59
2021/04/26 00:47:53;;;;;;;15.43;9.70;;;256.00;1689.60;;;;;;5092579;28;20024;-61
2021/04/26 00:50:28;;;;;;;17.92;8.93;;;231.30;1715.20;;;;;;5093105;28;20024;-59
2021/04/26 00:52:56;;;;;;;15.25;8.95;;;256.00;1664.00;;;;;;5104649;28;20040;-62
2021/04/26 00:55:26;;;;;;;19.48;10.43;;;256.10;1638.40;;;;;;5109443;28;20544;-67
2021/04/26 00:57:53;;;;;;;21.95;10.32;;;256.20;1664.00;;;;;;5109424;28;20032;-60
2021/04/26 01:00:19;;;;;;;14.55;9.95;;;256.20;1689.60;;;;;;5108529;28;20055;-59
2021/04/26 01:02:45;;;;;;;18.67;11.30;;;256.40;1638.40;;;;;;5108026;28;20020;-60
2021/04/26 01:05:15;;;;;;;34.58;26.45;;;256.30;1664.00;;;;;;5100212;28;20085;-59
2021/04/26 01:07:41;;;;;;;18.13;11.70;;;256.40;1664.00;;;;;;5090984;28;20382;-59
2021/04/26 01:10:09;;;;;;;21.08;12.23;;;256.20;1664.00;;;;;;5090979;28;20035;-61
2021/04/26 01:13:00;;;;;;;15.20;10.10;;;256.20;1689.60;;;;;;5090816;28;20078;-60
2021/04/26 01:15:38;;;;;;;18.50;10.98;;;256.20;1689.60;;;;;;5091410;28;20363;-60
2021/04/26 01:18:31;;;;;;;16.52;10.80;;;256.20;1664.00;;;;;;5091170;28;20386;-60
2021/04/26 01:21:08;;;;;;;15.60;10.20;;;256.10;1689.60;;;;;;5090859;28;20024;-61
2021/04/26 01:24:12;;;;;;;16.73;9.77;;;256.20;1689.60;;;;;;5090946;28;20431;-59
2021/04/26 01:26:43;;;;;;;14.43;9.10;;;256.20;1664.00;;;;;;5091005;28;20107;-59
2021/04/26 01:29:14;;;;;;;22.77;12.05;;;256.20;1689.60;;;;;;5091014;28;20020;-60
2021/04/26 01:32:26;;;;;;;20.92;11.02;;;256.30;1664.00;;;;;;5090668;28;20028;-60
2021/04/26 01:34:54;;;;;;;25.30;11.30;;;256.30;1664.00;;;;;;5090615;28;20028;-60
2021/04/26 01:37:20;;;;;;;19.30;11.25;;;256.30;1664.00;;;;;;5090392;28;20025;-60
2021/04/26 01:39:48;;;;;;;14.30;11.13;;;256.30;1689.60;;;;;;5089787;28;20066;-60
2021/04/26 01:42:16;;;;;;;17.65;11.10;;;256.20;1689.60;;;;;;5090570;28;20028;-59
2021/04/26 01:44:42;;;;;;;17.98;12.07;;;256.20;1689.60;;;;;;5090065;28;20067;-60
2021/04/26 01:47:09;;;;;;;20.17;11.45;;;256.10;1715.20;;;;;;5090703;28;20028;-60
2021/04/26 01:49:37;;;;;;;21.33;11.35;;;256.10;1715.20;;;;;;5090877;28;20423;-61
2021/04/26 01:52:08;;;;;;;16.83;10.73;;;231.30;1740.80;;;;;;5090297;28;20485;-60
2021/04/26 01:54:35;;;;;;;17.73;10.80;;;256.00;1766.40;;;;;;5090348;28;20026;-59
2021/04/26 01:57:01;;;;;;;15.63;9.85;;;231.30;1766.40;;;;;;5090323;28;20027;-60
2021/04/26 01:59:28;;;;;;;19.45;12.82;;;231.20;1817.60;;;;;;5090720;28;20063;-60
2021/04/26 02:01:56;;;;;;;14.55;10.23;;;231.00;1868.80;;;;;;5090314;28;20486;-60
2021/04/26 02:04:22;;;;;;;17.58;11.18;;;231.10;1792.00;;;;;;5090111;28;20036;-59
2021/04/26 02:06:49;;;;;;;18.92;11.25;;;231.00;1792.00;;;;;;5090348;28;20378;-59
2021/04/26 02:09:16;;;;;;;16.30;9.70;;;256.00;1766.40;;;;;;5090121;28;20375;-60
2021/04/26 02:11:43;;;;;;;16.60;10.88;;;256.10;1766.40;;;;;;5089972;28;20076;-60
2021/04/26 02:14:11;;;;;;;13.13;10.30;;;256.30;1740.80;;;;;;5090148;28;20563;-60
2021/04/26 02:16:37;;;;;;;15.20;10.90;;;256.30;1740.80;;;;;;5090178;28;20485;-59
2021/04/26 02:19:03;;;;;;;14.68;10.68;;;256.30;1740.80;;;;;;5090355;28;20030;-59
2021/04/26 02:21:29;;;;;;;16.13;11.02;;;256.40;1715.20;;;;;;5090302;28;20077;-60
2021/04/26 02:23:55;;;;;;;15.50;9.88;;;256.40;1689.60;;;;;;5090019;28;20025;-61
2021/04/26 02:26:20;;;;;;;20.38;11.57;;;256.40;1715.20;;;;;;5089847;28;20024;-60
2021/04/26 02:28:46;;;;;;;21.13;12.15;;;256.40;1740.80;;;;;;5090023;28;20035;-59
2021/04/26 02:31:19;;;;;;;16.73;10.68;;;256.40;1740.80;;;;;;5089929;28;20462;-60
2021/04/26 02:33:56;;;;;;;20.15;15.82;;;256.40;1766.40;;;;;;5089966;28;20032;-60
2021/04/26 02:36:29;;;;;;;19.67;12.23;;;256.30;1792.00;;;;;;5089932;28;20021;-60
2021/04/26 02:38:59;;;;;;;18.23;10.00;;;256.20;1792.00;;;;;;5089845;28;20537;-59
2021/04/26 02:41:31;;;;;;;17.35;11.10;;;231.30;1817.60;;;;;;5089989;28;20123;-60
2021/04/26 02:44:01;;;;;;;16.80;11.77;;;231.20;1843.20;;;;;;5090078;28;20463;-59
2021/04/26 02:46:29;;;;;;;17.08;12.13;;;231.20;1894.40;;;;;;5089772;28;20284;-59
2021/04/26 02:48:57;;;;;;;15.07;10.32;;;231.20;1843.20;;;;;;5087943;28;20383;-61
2021/04/26 02:51:27;;;;;;;18.20;11.45;;;231.20;1817.60;;;;;;5093016;28;20024;-59
2021/04/26 02:53:54;;;;;;;16.90;11.68;;;231.30;1792.00;;;;;;5093263;28;20067;-60
2021/04/26 02:56:20;;;;;;;22.85;12.52;;;231.30;1894.40;;;;;;5093950;28;20031;-59
2021/04/26 02:58:49;;;;;;;21.65;12.00;;;231.20;1894.40;;;;;;5093791;28;20036;-59
2021/04/26 03:01:16;;;;;;;18.63;10.73;;;231.00;1945.60;;;;;;5093635;28;20059;-59
2021/04/26 03:03:45;;;;;;;21.10;13.48;;;231.20;1868.80;;;;;;5093464;28;20035;-61
2021/04/26 03:06:13;;;;;;;16.90;10.27;;;231.30;1817.60;;;;;;5093056;28;20024;-59
2021/04/26 03:08:39;;;;;;;17.77;10.63;;;231.30;1817.60;;;;;;5093219;28;20036;-60
2021/04/26 03:11:12;;;;;;;16.02;10.98;;;231.20;1817.60;;;;;;5093570;28;20036;-60
2021/04/26 03:13:39;;;;;;;15.70;11.05;;;231.20;1817.60;;;;;;5093605;28;20389;-60
2021/04/26 03:16:06;;;;;;;18.90;12.13;;;231.00;1843.20;;;;;;5093616;28;20030;-60
2021/04/26 03:18:33;;;;;;;29.15;17.52;;;230.90;1843.20;;;;;;5093272;28;20031;-60
2021/04/26 03:21:00;;;;;;;21.60;12.80;;;230.90;1843.20;;;;;;5093460;28;20032;-60
2021/04/26 03:23:27;;;;;;;19.05;12.52;;;230.90;1843.20;;;;;;5093559;28;20449;-61
2021/04/26 03:25:58;;;;;;;19.98;11.98;;;230.90;1843.20;;;;;;5093105;28;20485;-60
2021/04/26 03:28:24;;;;;;;17.67;12.02;;;230.90;1817.60;;;;;;5093103;28;20024;-59
2021/04/26 03:30:50;;;;;;;19.58;10.20;;;231.00;1817.60;;;;;;5093052;28;20077;-60
2021/04/26 03:33:17;;;;;;;18.67;10.02;;;231.00;1843.20;;;;;;5093094;28;20032;-59
2021/04/26 03:35:43;;;;;;;19.83;11.80;;;231.00;1868.80;;;;;;5092764;28;20046;-59
2021/04/26 03:38:11;;;;;;;18.35;10.82;;;230.80;1894.40;;;;;;5093101;28;20032;-61
2021/04/26 03:40:37;;;;;;;24.20;18.52;;;230.70;1920.00;;;;;;5092821;28;20131;-61
2021/04/26 03:43:04;;;;;;;15.43;9.85;;;230.60;1920.00;;;;;;5092995;28;20024;-60
2021/04/26 03:45:30;;;;;;;16.00;10.45;;;230.60;1920.00;;;;;;5087956;28;20085;-60
2021/04/26 03:47:56;;;;;;;17.50;9.93;;;230.60;1920.00;;;;;;5055068;28;20025;-60
2021/04/26 03:50:24;;;;;;;15.77;10.70;;;230.60;1945.60;;;;;;5052441;28;20031;-59
2021/04/26 03:52:50;;;;;;;17.83;11.55;;;230.50;1945.60;;;;;;5052060;28;20113;-61
2021/04/26 03:55:19;;;;;;;14.70;9.98;;;230.50;1945.60;;;;;;5052304;28;20514;-60
2021/04/26 03:57:45;;;;;;;14.93;10.77;;;230.50;1945.60;;;;;;5052362;28;20025;-58
2021/04/26 04:00:13;;;;;;;16.38;10.80;;;230.60;1920.00;;;;;;5066235;28;20115;-60
2021/04/26 04:02:39;;;;;;;40.97;27.95;;;230.70;1894.40;;;;;;5071331;28;20025;-59
2021/04/26 04:05:07;;;;;;;19.67;12.52;;;230.80;1868.80;;;;;;5071012;28;20027;-60
2021/04/26 04:07:36;;;;;;;21.15;12.70;;;230.90;1868.80;;;;;;5071495;28;20043;-60
2021/04/26 04:10:06;;;;;;;20.92;13.85;;;231.00;1843.20;;;;;;5071933;28;20466;-59
2021/04/26 04:12:32;;;;;;;18.60;11.00;;;231.10;1843.20;;;;;;5071190;28;20132;-57
2021/04/26 04:14:59;;;;;;;20.95;13.57;;;231.30;1766.40;;;;;;5072218;28;20352;-58
2021/04/26 04:17:25;;;;;;;19.63;12.43;;;256.00;1766.40;;;;;;5071962;28;20029;-60
2021/04/26 04:19:51;;;;;;;20.77;13.15;;;256.00;1843.20;;;;;;5071703;28;20081;-59
2021/04/26 04:22:16;;;;;;;17.65;12.27;;;231.30;1868.80;;;;;;5071738;28;20459;-59
2021/04/26 04:24:42;;;;;;;27.95;14.07;;;256.10;1868.80;;;;;;5071639;28;20025;-59
2021/04/26 04:27:08;;;;;;;22.95;12.20;;;256.10;1868.80;;;;;;5071862;28;20025;-59
2021/04/26 04:29:33;;;;;;;19.17;11.98;;;256.00;1868.80;;;;;;5071680;28;20108;-60
2021/04/26 04:31:59;;;;;;;19.33;12.15;;;256.10;1868.80;;;;;;5071395;28;20471;-60
2021/04/26 04:34:25;;;;;;;16.77;11.75;;;256.60;1792.00;;;;;;5071625;28;20169;-60
2021/04/26 04:36:51;;;;;;;16.95;11.45;;;256.80;1715.20;;;;;;5071007;28;20089;-59
2021/04/26 04:39:17;;;;;;;18.90;11.55;;;256.90;1689.60;;;;;;5071934;28;20085;-59
2021/04/26 04:41:43;;;;;;;21.25;11.88;;;256.70;1740.80;;;;;;5071708;28;20103;-59
2021/04/26 04:44:08;;;;;;;18.55;13.55;;;256.50;1792.00;;;;;;5071944;28;20382;-59
2021/04/26 04:46:34;;;;;;;18.63;12.40;;;256.60;1766.40;;;;;;5071904;28;20505;-60
2021/04/26 04:49:00;;;;;;;20.55;12.60;;;281.70;1740.80;;;;;;5071260;28;20033;-60
2021/04/26 04:51:26;;;;;;;20.50;12.35;;;282.30;1664.00;;;;;;5071312;28;20025;-60
2021/04/26 04:53:53;;;;;;;22.35;13.93;;;308.00;1561.60;;;;;;5071079;28;20044;-60
2021/04/26 04:56:19;;;;;;;24.60;15.10;;;358.80;1408.00;;;;;;5071240;28;20038;-59
2021/04/26 04:58:45;;;;;;;24.85;14.80;;;409.60;1280.00;;;;;;5071155;28;20115;-60
2021/04/26 05:01:11;;;;;;;15.32;11.57;;;435.90;1126.40;;;;;;5071075;28;20059;-60
2021/04/26 05:03:37;;;;;;;17.38;12.77;;;461.10;1100.80;;;;;;5071722;28;20024;-61
2021/04/26 05:06:03;;;;;;;16.92;12.50;;;486.70;1024.00;;;;;;5070913;28;20016;-60
2021/04/26 05:08:28;;;;;;;21.42;12.93;;;487.30;972.80;;;;;;5070788;28;20111;-60
2021/04/26 05:10:54;;;;;;;15.75;12.68;;;512.80;896.00;;;;;;5070736;28;20028;-61
2021/04/26 05:13:20;;;;;;;18.42;13.38;;;512.90;896.00;;;;;;5070708;28;20101;-61
2021/04/26 05:15:45;;;;;;;21.58;13.63;;;538.00;896.00;;;;;;5070793;28;20075;-60
2021/04/26 05:18:11;;;;;;;16.55;13.35;;;563.40;870.40;;;;;;5070630;28;20069;-60
2021/04/26 05:20:40;;;;;;;18.55;12.93;;;563.40;870.40;;;;;;5070775;28;20070;-60
2021/04/26 05:23:06;;;;;;;15.18;11.70;;;588.80;819.20;;;;;;5070588;28;20079;-60
2021/04/26 05:25:32;;;;;;;14.35;12.43;;;614.50;768.00;;;;;;5070403;28;20482;-61
2021/04/26 05:27:58;;;;;;;14.90;11.63;;;614.60;742.40;;;;;;5070698;28;20028;-60
2021/04/26 05:30:24;;;;;;;16.00;12.68;;;615.00;716.80;;;;;;5070398;28;20021;-61
2021/04/26 05:32:49;;;;;;;14.85;12.75;;;640.00;716.80;;;;;;5070318;28;20039;-64
2021/04/26 05:35:15;;;;;;;17.60;12.82;;;640.00;691.20;;;;;;5070577;28;20021;-60
2021/04/26 05:37:41;;;;;;;15.10;13.07;;;615.10;716.80;;;;;;5070030;28;20025;-61
2021/04/26 05:40:07;;;;;;;15.68;13.80;;;640.40;691.20;;;;;;5065212;28;20020;-60
2021/04/26 05:42:33;;;;;;;16.02;13.90;;;640.60;665.60;;;;;;5060545;28;20090;-60
2021/04/26 05:44:59;;;;;;;16.23;13.02;;;666.50;665.60;;;;;;5059069;28;20514;-61
2021/04/26 05:47:24;;;;;;;15.32;13.85;;;691.90;588.80;;;;;;5059419;28;20036;-61
2021/04/26 05:49:50;;;;;;;17.92;14.57;;;717.30;588.80;;;;;;5062290;28;20021;-63
2021/04/26 05:52:16;;;;;;;25.20;18.48;;;717.60;588.80;;;;;;5079964;28;20059;-61
2021/04/26 05:54:42;;;;;;;21.75;17.58;;;717.60;563.20;;;;;;5067963;28;20021;-60
2021/04/26 05:57:07;;;;;;;18.33;16.42;;;742.80;563.20;;;;;;5061197;28;20063;-62
2021/04/26 05:59:33;;;;;;;19.48;17.52;;;743.00;563.20;;;;;;5060838;28;20116;-62
2021/04/26 06:01:59;;;;;;;18.20;16.60;;;793.70;512.00;;;;;;5058880;28;20078;-60
2021/04/26 06:04:25;;;;;;;21.35;19.20;;;793.90;512.00;;;;;;5062771;28;20106;-62
2021/04/26 06:06:50;;;;;;;24.45;21.67;;;794.10;537.60;;;;;;5056498;28;20029;-60
2021/04/26 06:09:16;;;;;;;24.08;21.85;;;794.30;512.00;;;;;;5054093;28;20467;-67
2021/04/26 06:11:42;;;;;;;29.13;25.83;;;794.50;512.00;;;;;;5050665;28;20040;-69
2021/04/26 06:14:07;;;;;;;30.83;27.80;;;820.00;460.80;;;;;;5052613;28;20096;-70
2021/04/26 06:16:33;;;;;;;26.50;24.10;;;845.10;460.80;;;;;;5051209;28;20447;-68
2021/04/26 06:18:59;;;;;;;28.45;25.67;;;794.50;486.40;;;;;;5062079;28;20043;-69
2021/04/26 06:21:25;;;;;;;29.83;26.95;;;768.90;512.00;;;;;;5059013;28;20024;-69
2021/04/26 06:23:50;;;;;;;28.55;25.75;;;819.80;486.40;;;;;;5059902;28;20036;-69
2021/04/26 06:26:16;;;;;;;26.08;23.42;;;794.00;512.00;;;;;;5061658;28;20074;-69
2021/04/26 06:28:42;;;;;;;25.35;22.95;;;794.00;512.00;;;;;;5064007;28;20016;-69
2021/04/26 06:31:08;;;;;;;32.75;29.38;;;793.70;537.60;;;;;;5063746;28;20055;-69
2021/04/26 06:33:33;;;;;;;26.15;23.75;;;768.90;512.00;;;;;;5062585;28;20529;-69
2021/04/26 06:35:59;;;;;;;28.40;23.42;;;794.00;512.00;;;;;;5056574;28;20021;-69
2021/04/26 06:38:25;;;;;;;24.88;21.27;;;794.10;537.60;;;;;;5058830;28;20029;-69
2021/04/26 06:40:51;;;;;;;26.15;23.20;;;768.90;537.60;;;;;;5053559;28;20043;-70
2021/04/26 06:43:17;;;;;;;24.42;22.02;;;793.90;537.60;;;;;;5053971;28;20107;-70
2021/04/26 06:45:44;;;;;;;32.38;29.05;;;794.20;537.60;;;;;;5053270;28;20037;-70
2021/04/26 06:48:13;;;;;;;26.52;24.05;;;793.90;537.60;;;;;;5053725;28;20033;-70
2021/04/26 06:50:39;;;;;;;26.20;23.63;;;768.30;563.20;;;;;;5058072;28;20028;-70
2021/04/26 06:53:05;;;;;;;24.77;22.45;;;794.00;537.60;;;;;;5064054;28;20068;-68
2021/04/26 06:55:31;;;;;;;23.35;21.15;;;819.30;512.00;;;;;;5062273;28;20020;-68
2021/04/26 06:57:58;;;;;;;24.70;22.17;;;819.80;512.00;;;;;;5063823;28;20021;-70
2021/04/26 07:00:25;;;;;;;18.90;17.08;;;793.80;563.20;;;;;;5062233;28;20021;-69
2021/04/26 07:02:51;;;;;;;22.50;20.35;;;819.20;537.60;;;;;;5062284;28;20424;-69
2021/04/26 07:05:18;;;;;;;21.67;19.77;;;768.30;563.20;;;;;;5064231;28;20012;-67
2021/04/26 07:07:44;;;;;;;19.10;17.33;;;768.60;563.20;;;;;;5062090;28;20478;-69
2021/04/26 07:10:10;;;;;;;25.20;22.73;;;768.90;537.60;;;;;;5061367;28;20036;-70
2021/04/26 07:12:36;;;;;;;22.42;20.42;;;794.50;537.60;;;;;;5063029;28;20394;-67
2021/04/26 07:15:04;;;;;;;23.50;21.08;;;819.90;512.00;;;;;;5068526;28;20044;-70
2021/04/26 07:17:30;;;;;;;22.73;20.35;;;870.40;486.40;;;;;;5053077;28;20029;-70
2021/04/26 07:19:56;;;;;;;21.83;19.55;;;871.30;460.80;;;;;;5052837;28;20025;-69
2021/04/26 07:22:21;;;;;;;19.30;17.17;;;896.80;435.20;;;;;;5052684;28;20024;-68
2021/04/26 07:24:47;;;;;;;17.77;16.38;;;896.40;435.20;;;;;;5052840;28;20066;-69
2021/04/26 07:27:13;;;;;;;19.70;17.60;;;922.20;409.60;;;;;;5052804;28;20063;-71
2021/04/26 07:29:39;;;;;;;31.10;20.17;;;921.90;435.20;;;;;;5052871;28;20215;-69
2021/04/26 07:32:05;;;;;;;22.45;20.08;;;922.50;409.60;;;;;;5052497;28;20536;-71
2021/04/26 07:34:31;;;;;;;19.55;17.65;;;947.30;409.60;;;;;;5052725;28;20550;-68
2021/04/26 07:37:00;;;;;;;19.88;17.92;;;972.80;384.00;;;;;;5051070;28;20075;-70
2021/04/26 07:39:26;;;;;;;17.08;15.57;;;922.40;409.60;;;;;;5052349;28;20379;-69
2021/04/26 07:41:52;;;;;;;18.92;16.95;;;922.20;384.00;;;;;;5052734;28;20036;-70
2021/04/26 07:44:19;;;;;;;16.58;14.63;;;922.20;409.60;;;;;;5052749;28;20040;-70
2021/04/26 07:46:44;;;;;;;15.80;14.25;;;922.30;384.00;;;;;;5052580;28;20024;-70
2021/04/26 07:49:10;;;;;;;26.15;19.48;;;947.40;358.40;;;;;;5052214;28;20505;-67
2021/04/26 07:51:36;;;;;;;18.77;16.83;;;947.80;384.00;;;;;;5052619;28;20048;-67
2021/04/26 07:54:02;;;;;;;19.20;17.60;;;921.80;435.20;;;;;;5052064;28;20040;-71
2021/04/26 07:56:30;;;;;;;23.73;21.42;;;947.50;384.00;;;;;;5052491;28;20029;-71
2021/04/26 07:58:55;;;;;;;24.52;22.13;;;922.40;435.20;;;;;;5052278;28;20039;-65
2021/04/26 08:01:21;;;;;;;19.50;17.70;;;896.60;435.20;;;;;;5061321;28;20383;-70
2021/04/26 08:03:47;;;;;;;19.63;17.77;;;845.70;512.00;;;;;;5089082;28;20024;-68
2021/04/26 08:06:12;;;;;;;22.50;20.20;;;871.10;435.20;;;;;;5095812;28;20020;-71
2021/04/26 08:08:40;;;;;;;19.52;17.83;;;871.30;435.20;;;;;;5093816;28;20047;-66
2021/04/26 08:11:05;;;;;;;17.85;16.00;;;845.50;486.40;;;;;;5098029;28;20020;-67
2021/04/26 08:13:31;;;;;;;16.45;14.77;;;819.90;486.40;;;;;;5092019;28;20109;-69
2021/04/26 08:15:58;;;;;;;17.00;15.13;;;871.00;435.20;;;;;;5092219;28;20032;-70
2021/04/26 08:18:24;;;;;;;18.77;16.88;;;845.20;486.40;;;;;;5092023;28;20373;-70
2021/04/26 08:20:51;;;;;;;17.50;15.70;;;871.30;435.20;;;;;;5092062;28;20085;-66
2021/04/26 08:23:17;;;;;;;20.33;18.33;;;921.60;435.20;;;;;;5091973;28;20024;-65
2021/04/26 08:25:43;;;;;;;17.35;15.80;;;896.50;435.20;;;;;;5091806;28;20027;-70
2021/04/26 08:28:10;;;;;;;17.67;15.43;;;870.60;486.40;;;;;;5092077;28;20032;-69
2021/04/26 08:30:35;;;;;;;16.33;14.85;;;819.90;486.40;;;;;;5092009;28;20078;-67
2021/04/26 08:33:01;;;;;;;15.80;14.15;;;768.90;512.00;;;;;;5084648;28;20087;-69
2021/04/26 08:35:27;;;;;;;21.65;18.17;;;742.90;563.20;;;;;;5085989;28;20107;-70
2021/04/26 08:37:54;;;;;;;18.15;14.95;;;691.40;665.60;;;;;;5073980;28;20242;-67
2021/04/26 08:40:20;;;;;;;16.60;14.82;;;665.80;691.20;;;;;;5071163;28;20060;-66
2021/04/26 08:42:45;;;;;;;13.25;11.02;;;615.30;742.40;;;;;;5070318;28;20488;-68
2021/04/26 08:45:12;;;;;;;13.57;12.25;;;614.60;716.80;;;;;;5071251;28;20060;-64
2021/04/26 08:47:39;;;;;;;17.48;15.57;;;614.50;742.40;;;;;;5071104;28;20024;-68
2021/04/26 08:50:06;;;;;;;15.10;12.50;;;563.90;768.00;;;;;;5071625;28;20032;-68
2021/04/26 08:52:31;;;;;;;15.23;13.63;;;589.10;768.00;;;;;;5071012;28;20033;-68
2021/04/26 08:54:58;;;;;;;17.23;12.20;;;563.30;819.20;;;;;;5071229;28;20078;-69
2021/04/26 08:57:24;;;;;;;17.95;13.30;;;563.70;793.60;;;;;;5070965;28;20030;-68
2021/04/26 08:59:50;;;;;;;15.68;12.90;;;563.20;844.80;;;;;;5070886;28;20021;-68
2021/04/26 09:02:16;;;;;;;16.42;13.10;;;538.40;819.20;;;;;;5071157;28;20104;-65
2021/04/26 09:04:55;;;;;;;17.08;12.30;;;563.60;819.20;;;;;;5070847;28;20104;-63
2021/04/26 09:07:21;;;;;;;17.20;14.77;;;563.90;793.60;;;;;;5070987;28;20074;-69
2021/04/26 09:09:49;;;;;;;25.23;19.08;;;588.90;819.20;;;;;;5070867;28;20378;-64
2021/04/26 09:12:30;;;;;;;13.65;12.13;;;564.10;768.00;;;;;;5071194;28;20099;-70
2021/04/26 09:14:57;;;;;;;15.80;13.80;;;563.70;768.00;;;;;;5071132;28;20103;-64
2021/04/26 09:17:39;;;;;;;16.92;13.68;;;564.10;793.60;;;;;;5070920;28;20025;-64
2021/04/26 09:20:19;;;;;;;16.00;14.15;;;538.40;844.80;;;;;;5070711;28;20078;-64
2021/04/26 09:22:47;;;;;;;18.20;16.15;;;538.40;844.80;;;;;;5070834;28;20028;-70
2021/04/26 09:25:34;;;;;;;17.52;13.77;;;563.30;870.40;;;;;;5070578;28;20028;-69
2021/04/26 09:28:17;;;;;;;17.23;13.35;;;563.80;844.80;;;;;;5070500;28;20035;-66
2021/04/26 09:30:55;;;;;;;18.85;13.30;;;563.70;870.40;;;;;;5070447;28;20478;-67
2021/04/26 09:33:40;;;;;;;18.10;13.10;;;563.50;819.20;;;;;;5070338;28;20390;-67
2021/04/26 09:36:20;;;;;;;14.00;10.10;;;588.90;793.60;;;;;;5070850;28;20044;-67
2021/04/26 09:38:47;;;;;;;12.18;10.48;;;538.20;768.00;;;;;;5070526;28;20028;-68
2021/04/26 09:41:29;;;;;;;13.07;9.70;;;538.00;793.60;;;;;;5068631;28;20434;-64
2021/04/26 09:44:01;;;;;;;14.05;10.00;;;538.00;793.60;;;;;;5070574;28;20470;-68
2021/04/26 09:46:46;;;;;;;15.50;10.50;;;537.90;793.60;;;;;;5070188;28;20040;-69
2021/04/26 09:49:16;;;;;;;18.02;10.00;;;537.60;819.20;;;;;;5070278;28;20107;-64
2021/04/26 09:51:46;;;;;;;14.93;10.18;;;512.80;793.60;;;;;;5070087;28;20032;-65
2021/04/26 09:54:12;;;;;;;18.33;10.70;;;537.60;793.60;;;;;;5070268;28;20459;-64
2021/04/26 09:56:45;;;;;;;17.30;9.57;;;512.20;844.80;;;;;;5070189;28;20025;-66
2021/04/26 09:59:14;;;;;;;14.43;9.73;;;512.70;819.20;;;;;;5069388;28;20063;-65
2021/04/26 10:01:42;;;;;;;13.55;10.82;;;512.70;793.60;;;;;;5069884;28;20494;-67
2021/04/26 10:04:12;;;;;;;13.80;10.18;;;537.80;870.40;;;;;;5070105;28;20020;-69
2021/04/26 10:06:38;;;;;;;14.25;10.15;;;512.80;793.60;;;;;;5070122;28;20445;-68
2021/04/26 10:09:07;;;;;;;15.20;10.75;;;537.60;819.20;;;;;;5070010;28;20078;-68
2021/04/26 10:11:34;;;;;;;14.10;10.98;;;512.40;819.20;;;;;;5070101;28;20032;-65
2021/04/26 10:14:05;;;;;;;13.75;9.25;;;487.30;844.80;;;;;;5069914;28;21646;-66
2021/04/26 10:16:43;;;;;;;12.70;9.75;;;487.20;844.80;;;;;;5069940;28;20024;-67
2021/04/26 10:19:09;;;;;;;16.95;9.85;;;512.10;844.80;;;;;;5070045;28;20081;-66
2021/04/26 10:21:35;;;;;;;12.60;9.98;;;487.00;896.00;;;;;;5070191;28;20372;-68
2021/04/26 10:24:17;;;;;;;14.68;10.48;;;486.60;921.60;;;;;;5070122;28;20028;-68
2021/04/26 10:26:49;;;;;;;12.55;9.80;;;512.10;947.20;;;;;;5069794;28;20024;-68
2021/04/26 10:29:34;;;;;;;16.27;10.32;;;512.20;844.80;;;;;;5070074;28;20060;-63
2021/04/26 10:32:04;;;;;;;13.10;8.43;;;487.30;896.00;;;;;;5069530;28;20535;-63
2021/04/26 10:34:35;;;;;;;11.45;9.38;;;486.90;896.00;;;;;;5069587;28;20062;-65
2021/04/26 10:37:22;;;;;;;17.10;10.70;;;512.10;870.40;;;;;;5069848;28;20475;-68
2021/04/26 10:39:57;;;;;;;19.30;11.07;;;487.00;896.00;;;;;;5069665;28;20029;-69
2021/04/26 10:42:34;;;;;;;17.50;10.05;;;486.70;896.00;;;;;;5069582;28;20027;-68
2021/04/26 10:45:00;;;;;;;16.27;10.35;;;487.20;870.40;;;;;;5069625;28;20064;-68
2021/04/26 10:47:32;;;;;;;16.95;9.40;;;512.00;844.80;;;;;;5069944;28;20035;-68
2021/04/26 10:50:00;;;;;;;15.68;9.48;;;512.60;793.60;;;;;;5069901;28;20378;-66
2021/04/26 10:52:26;;;;;;;19.20;13.63;;;512.20;819.20;;;;;;5069499;28;20064;-63
2021/04/26 10:55:12;;;;;;;16.27;9.70;;;512.30;819.20;;;;;;5069336;28;20048;-63
2021/04/26 10:57:56;;;;;;;16.13;11.00;;;512.20;819.20;;;;;;5069809;28;20056;-63
2021/04/26 11:00:43;;;;;;;15.52;11.43;;;512.70;819.20;;;;;;5069293;28;20051;-66
2021/04/26 11:03:09;;;;;;;17.30;11.13;;;512.90;793.60;;;;;;5069413;28;20039;-68
2021/04/26 11:05:44;;;;;;;14.82;11.10;;;512.00;870.40;;;;;;5069656;28;20459;-69
2021/04/26 11:11:01;;;;;;;23.92;13.98;;;512.10;844.80;;;;;;5070434;28;20040;-65
2021/04/26 11:13:33;;;;;;;22.52;15.63;;;512.40;870.40;;;;;;5072877;28;20032;-64
2021/04/26 11:16:15;;;;;;;16.00;11.65;;;512.40;870.40;;;;;;5073076;28;20467;-64
2021/04/26 11:19:04;;;;;;;17.10;11.73;;;537.70;870.40;;;;;;5072823;28;20032;-68
2021/04/26 11:21:45;;;;;;;29.98;16.42;;;538.00;844.80;;;;;;5072922;28;20051;-65
2021/04/26 11:24:36;;;;;;;17.70;14.05;;;537.70;844.80;;;;;;5072625;28;20025;-67
2021/04/26 11:27:08;;;;;;;19.48;13.48;;;512.80;844.80;;;;;;5073056;28;20033;-68
2021/04/26 11:29:45;;;;;;;18.23;13.40;;;512.40;870.40;;;;;;5072958;28;20070;-70
2021/04/26 11:32:13;;;;;;;16.90;14.02;;;512.70;870.40;;;;;;5072632;28;20021;-64
2021/04/26 11:34:48;;;;;;;16.15;12.38;;;512.40;870.40;;;;;;5072769;28;20453;-68
2021/04/26 11:37:21;;;;;;;16.40;11.65;;;512.40;896.00;;;;;;5072629;28;20486;-64
2021/04/26 11:39:50;;;;;;;18.27;12.10;;;512.50;870.40;;;;;;5072525;28;20056;-68
2021/04/26 11:42:42;;;;;;;12.43;10.80;;;512.10;896.00;;;;;;5072699;28;20029;-64
2021/04/26 11:45:09;;;;;;;15.13;12.10;;;512.90;870.40;;;;;;5070373;28;20044;-65
2021/04/26 11:47:35;;;;;;;14.30;11.45;;;537.80;844.80;;;;;;5072950;28;20044;-66
2021/04/26 11:50:03;;;;;;;17.85;11.88;;;537.80;844.80;;;;;;5072724;28;20032;-64
2021/04/26 11:52:31;;;;;;;14.82;12.07;;;538.00;870.40;;;;;;5072307;28;20024;-69
2021/04/26 11:55:03;;;;;;;18.58;12.90;;;512.90;844.80;;;;;;5072410;28;20061;-68
2021/04/26 11:57:30;;;;;;;15.13;11.38;;;512.40;870.40;;;;;;5072252;28;20027;-68
2021/04/26 12:00:03;;;;;;;16.08;11.90;;;512.70;844.80;;;;;;5072374;28;20166;-68
2021/04/26 12:02:49;;;;;;;18.05;11.60;;;537.90;870.40;;;;;;5071388;28;20398;-67
2021/04/26 12:05:18;;;;;;;17.60;12.13;;;512.90;844.80;;;;;;5072441;28;20028;-64
2021/04/26 12:07:46;;;;;;;16.00;13.00;;;512.00;896.00;;;;;;5071905;28;20036;-69
2021/04/26 12:10:12;;;;;;;18.35;13.13;;;512.20;896.00;;;;;;5071659;28;20031;-64
2021/04/26 12:12:39;;;;;;;17.08;13.45;;;512.90;896.00;;;;;;5071915;28;20041;-64
2021/04/26 12:15:09;;;;;;;23.80;19.30;;;512.80;870.40;;;;;;5071803;28;20021;-68
2021/04/26 12:17:40;;;;;;;26.85;15.35;;;512.90;870.40;;;;;;5071938;28;20074;-64